createdAt,value
2023-03-27T00:01:38.233Z,25.42
2023-03-27T00:04:09.259Z,25.46
2023-03-27T00:06:37.737Z,25.92
2023-03-27T00:09:08.457Z,25.82
2023-03-27T00:11:37.101Z,25.93
2023-03-27T00:14:05.788Z,25.94
2023-03-27T00:16:35.718Z,25.81
2023-03-27T00:19:05.610Z,26.23
2023-03-27T00:21:34.393Z,26.28
2023-03-27T00:24:02.839Z,26.43
2023-03-27T00:26:31.636Z,26.53
2023-03-27T00:29:00.224Z,26.44
2023-03-27T00:31:28.498Z,26.26
2023-03-27T00:33:58.688Z,26.06
2023-03-27T00:36:27.349Z,26.09
2023-03-27T00:38:55.857Z,26.25
2023-03-27T00:41:24.681Z,26.12
2023-03-27T00:43:56.430Z,25.83
2023-03-27T00:46:31.665Z,24.85
2023-03-27T00:49:04.457Z,25.47
2023-03-27T00:51:32.886Z,25.93
2023-03-27T00:54:02.027Z,25.75
2023-03-27T00:56:30.760Z,26.00
2023-03-27T00:59:02.678Z,25.44
2023-03-27T01:01:32.119Z,25.74
2023-03-27T01:04:05.839Z,25.39
2023-03-27T01:06:34.509Z,25.41
2023-03-27T01:09:05.054Z,25.68
2023-03-27T01:11:40.362Z,25.19
2023-03-27T01:14:14.763Z,25.35
2023-03-27T01:16:50.390Z,25.56
2023-03-27T01:19:43.080Z,25.38
2023-03-27T01:22:26.255Z,25.26
2023-03-27T01:25:21.690Z,25.41
2023-03-27T01:28:12.678Z,25.40
2023-03-27T01:30:43.208Z,26.31
2023-03-27T01:33:27.021Z,25.65
2023-03-27T01:36:34.897Z,25.34
2023-03-27T01:39:30.781Z,25.83
2023-03-27T01:42:06.429Z,26.25
2023-03-27T01:44:45.306Z,26.49
2023-03-27T01:47:23.380Z,26.33
2023-03-27T01:49:54.816Z,26.57
2023-03-27T01:52:27.130Z,26.42
2023-03-27T01:55:03.428Z,26.02
2023-03-27T01:57:36.852Z,26.20
2023-03-27T02:00:22.653Z,26.14
2023-03-27T02:02:54.475Z,25.79
2023-03-27T02:05:26.478Z,25.67
2023-03-27T02:07:58.964Z,25.60
2023-03-27T02:10:33.380Z,25.35
2023-03-27T02:13:06.561Z,25.46
2023-03-27T02:15:36.346Z,25.85
2023-03-27T02:18:06.264Z,25.52
2023-03-27T02:20:35.103Z,25.76
2023-03-27T02:23:03.674Z,25.79
2023-03-27T02:25:35.183Z,25.22
2023-03-27T02:28:14.230Z,25.03
2023-03-27T02:30:46.362Z,25.36
2023-03-27T02:33:41.704Z,24.90
2023-03-27T02:36:21.341Z,24.85
2023-03-27T02:38:53.968Z,25.33
2023-03-27T02:41:27.934Z,24.97
2023-03-27T02:44:02.200Z,24.84
2023-03-27T02:46:33.171Z,25.20
2023-03-27T02:49:04.618Z,24.95
2023-03-27T02:51:37.123Z,25.09
2023-03-27T02:54:07.897Z,25.38
2023-03-27T02:56:40.392Z,24.90
2023-03-27T02:59:11.033Z,25.11
2023-03-27T03:01:40.652Z,25.05
2023-03-27T03:04:12.502Z,24.83
2023-03-27T03:06:42.293Z,23.58
2023-03-27T03:09:11.207Z,24.76
2023-03-27T03:11:47.088Z,24.43
2023-03-27T03:14:15.870Z,25.06
2023-03-27T03:16:44.159Z,24.89
2023-03-27T03:19:12.860Z,24.90
2023-03-27T03:21:41.150Z,24.87
2023-03-27T03:24:10.522Z,24.98
2023-03-27T03:26:40.140Z,25.22
2023-03-27T03:29:10.836Z,24.82
2023-03-27T03:31:46.779Z,24.96
2023-03-27T03:34:18.510Z,24.88
2023-03-27T03:36:49.767Z,24.76
2023-03-27T03:39:18.913Z,24.89
2023-03-27T03:41:49.085Z,24.68
2023-03-27T03:44:17.570Z,24.61
2023-03-27T03:46:45.903Z,24.50
2023-03-27T03:49:14.375Z,24.53
2023-03-27T03:51:42.578Z,24.46
2023-03-27T03:54:11.570Z,24.37
2023-03-27T03:56:41.852Z,24.38
2023-03-27T03:59:12.914Z,23.91
2023-03-27T04:01:43.619Z,23.97
2023-03-27T04:04:15.001Z,24.11
2023-03-27T04:06:43.325Z,24.03
2023-03-27T04:09:12.513Z,24.05
2023-03-27T04:11:40.740Z,24.23
2023-03-27T04:14:09.146Z,24.18
2023-03-27T04:16:38.849Z,23.99
2023-03-27T04:19:07.393Z,24.28
2023-03-27T04:21:36.559Z,24.14
2023-03-27T04:24:06.216Z,24.04
2023-03-27T04:26:35.511Z,24.23
2023-03-27T04:29:04.155Z,24.24
2023-03-27T04:31:34.754Z,24.29
2023-03-27T04:34:04.834Z,23.97
2023-03-27T04:36:33.171Z,24.32
2023-03-27T04:39:02.449Z,24.51
2023-03-27T04:41:30.873Z,24.43
2023-03-27T04:43:59.784Z,24.29
2023-03-27T04:46:28.005Z,24.22
2023-03-27T04:48:56.684Z,24.46
2023-03-27T04:51:26.719Z,24.13
2023-03-27T04:53:56.607Z,24.31
2023-03-27T04:56:25.107Z,24.55
2023-03-27T04:58:53.666Z,24.44
2023-03-27T05:01:22.909Z,24.27
2023-03-27T05:03:51.736Z,24.21
2023-03-27T05:06:20.224Z,24.09
2023-03-27T05:08:50.285Z,24.00
2023-03-27T05:11:22.250Z,24.33
2023-03-27T05:13:51.075Z,24.24
2023-03-27T05:16:19.401Z,24.34
2023-03-27T05:18:47.937Z,24.47
2023-03-27T05:21:16.863Z,24.51
2023-03-27T05:23:45.301Z,24.60
2023-03-27T05:26:14.939Z,24.26
2023-03-27T05:28:43.438Z,24.34
2023-03-27T05:31:12.784Z,24.50
2023-03-27T05:33:41.339Z,24.47
2023-03-27T05:36:10.443Z,24.49
2023-03-27T05:38:39.773Z,24.25
2023-03-27T05:41:08.562Z,24.24
2023-03-27T05:43:38.916Z,23.99
2023-03-27T05:46:07.782Z,24.23
2023-03-27T05:48:38.703Z,24.26
2023-03-27T05:51:07.363Z,24.38
2023-03-27T05:53:39.342Z,24.33
2023-03-27T05:56:08.582Z,24.21
2023-03-27T05:58:38.934Z,24.20
2023-03-27T06:01:07.974Z,24.34
2023-03-27T06:03:38.567Z,24.25
2023-03-27T06:06:11.543Z,23.67
2023-03-27T06:08:40.319Z,24.26
2023-03-27T06:11:12.526Z,23.48
2023-03-27T06:13:42.790Z,23.87
2023-03-27T06:16:11.829Z,24.00
2023-03-27T06:18:40.776Z,23.89
2023-03-27T06:21:09.044Z,23.92
2023-03-27T06:23:37.721Z,23.72
2023-03-27T06:26:06.467Z,23.81
2023-03-27T06:28:35.055Z,23.82
2023-03-27T06:31:04.739Z,23.69
2023-03-27T06:33:33.249Z,23.84
2023-03-27T06:36:01.510Z,23.74
2023-03-27T06:38:31.653Z,23.96
2023-03-27T06:41:00.731Z,23.77
2023-03-27T06:43:29.287Z,23.64
2023-03-27T06:45:58.309Z,23.54
2023-03-27T06:48:28.834Z,23.30
2023-03-27T06:50:57.183Z,23.65
2023-03-27T06:53:28.156Z,23.69
2023-03-27T06:55:58.626Z,23.42
2023-03-27T06:58:27.587Z,23.50
2023-03-27T07:00:56.159Z,23.55
2023-03-27T07:03:25.881Z,23.37
2023-03-27T07:05:56.055Z,22.85
2023-03-27T07:08:25.578Z,23.24
2023-03-27T07:13:26.233Z,23.50
2023-03-27T07:15:55.075Z,23.57
2023-03-27T07:18:23.772Z,23.50
2023-03-27T07:20:52.285Z,23.30
2023-03-27T07:23:22.475Z,23.29
2023-03-27T07:25:58.800Z,22.69
2023-03-27T07:28:27.751Z,23.38
2023-03-27T07:30:56.379Z,23.48
2023-03-27T07:33:25.487Z,23.58
2023-03-27T07:35:53.808Z,23.78
2023-03-27T07:38:24.048Z,23.58
2023-03-27T07:40:52.282Z,23.90
2023-03-27T07:43:20.787Z,23.99
2023-03-27T07:45:49.808Z,23.88
2023-03-27T07:48:19.097Z,23.73
2023-03-27T07:50:47.927Z,23.93
2023-03-27T07:53:32.300Z,23.88
2023-03-27T07:56:04.022Z,23.78
2023-03-27T07:58:32.731Z,23.85
2023-03-27T08:01:02.484Z,24.09
2023-03-27T08:03:32.259Z,24.17
2023-03-27T08:06:01.781Z,24.34
2023-03-27T08:08:31.058Z,24.05
2023-03-27T08:11:00.142Z,23.90
2023-03-27T08:13:30.474Z,23.46
2023-03-27T08:16:07.089Z,23.30
2023-03-27T08:18:36.591Z,24.13
2023-03-27T08:21:07.200Z,23.56
2023-03-27T08:23:36.300Z,23.69
2023-03-27T08:26:05.629Z,23.78
2023-03-27T08:28:36.749Z,23.42
2023-03-27T08:31:11.477Z,23.06
2023-03-27T08:33:41.989Z,23.71
2023-03-27T08:36:11.613Z,23.36
2023-03-27T08:38:41.438Z,23.61
2023-03-27T08:41:22.412Z,22.69
2023-03-27T08:43:53.395Z,23.40
2023-03-27T08:46:23.883Z,23.20
2023-03-27T08:48:55.402Z,23.20
2023-03-27T08:51:26.957Z,22.73
2023-03-27T08:53:58.405Z,23.08
2023-03-27T08:56:27.519Z,23.57
2023-03-27T08:58:57.529Z,23.55
2023-03-27T09:01:29.677Z,23.36
2023-03-27T09:04:03.005Z,23.30
2023-03-27T09:06:38.353Z,23.20
2023-03-27T09:09:12.366Z,23.10
2023-03-27T09:11:52.502Z,22.81
2023-03-27T09:14:29.313Z,22.59
2023-03-27T09:16:58.144Z,23.21
2023-03-27T09:19:33.075Z,22.45
2023-03-27T09:22:06.630Z,22.36
2023-03-27T09:24:38.020Z,22.88
2023-03-27T09:27:17.811Z,22.34
2023-03-27T09:30:05.603Z,22.37
2023-03-27T09:32:35.107Z,22.88
2023-03-27T09:35:04.774Z,22.81
2023-03-27T09:37:34.510Z,22.94
2023-03-27T09:40:07.542Z,22.40
2023-03-27T09:42:38.876Z,22.05
2023-03-27T09:45:11.609Z,22.21
2023-03-27T09:47:44.356Z,22.42
2023-03-27T09:50:27.879Z,22.23
2023-03-27T09:53:09.396Z,22.03
2023-03-27T09:55:49.762Z,22.23
2023-03-27T09:58:25.327Z,22.86
2023-03-27T10:01:09.818Z,22.05
2023-03-27T10:03:39.321Z,22.78
2023-03-27T10:06:10.391Z,22.97
2023-03-27T10:08:42.117Z,22.42
2023-03-27T10:11:16.665Z,22.38
2023-03-27T10:13:47.602Z,22.80
2023-03-27T10:16:18.814Z,22.59
2023-03-27T10:18:49.198Z,22.71
2023-03-27T10:21:36.130Z,22.42
2023-03-27T10:24:06.784Z,22.50
2023-03-27T10:26:38.225Z,22.24
2023-03-27T10:29:20.407Z,21.78
2023-03-27T10:31:53.704Z,22.06
2023-03-27T10:34:31.020Z,21.95
2023-03-27T10:37:01.583Z,22.63
2023-03-27T10:39:32.128Z,22.12
2023-03-27T10:42:04.553Z,22.14
2023-03-27T10:44:32.806Z,22.34
2023-03-27T10:47:03.452Z,22.11
2023-03-27T10:49:37.644Z,21.24
2023-03-27T10:52:16.569Z,20.97
2023-03-27T10:54:47.593Z,21.34
2023-03-27T10:57:16.355Z,20.17
2023-03-27T10:59:48.865Z,20.74
2023-03-27T11:02:22.136Z,20.69
2023-03-27T11:04:53.906Z,21.15
2023-03-27T11:07:28.204Z,21.03
2023-03-27T11:10:00.293Z,20.76
2023-03-27T11:12:30.488Z,20.85
2023-03-27T11:15:02.157Z,20.10
2023-03-27T11:17:37.440Z,20.26
2023-03-27T11:20:08.637Z,20.42
2023-03-27T11:22:42.600Z,20.37
2023-03-27T11:25:20.004Z,19.09
2023-03-27T11:27:56.025Z,19.87
2023-03-27T11:30:33.724Z,19.34
2023-03-27T11:33:32.348Z,19.18
2023-03-27T11:36:08.650Z,19.49
2023-03-27T11:38:40.519Z,19.26
2023-03-27T11:41:14.662Z,19.66
2023-03-27T11:43:44.461Z,19.01
2023-03-27T11:46:26.233Z,18.61
2023-03-27T11:49:06.671Z,19.29
2023-03-27T11:51:43.332Z,18.89
2023-03-27T11:54:24.534Z,18.38
2023-03-27T11:56:54.710Z,19.47
2023-03-27T11:59:37.486Z,18.87
2023-03-27T12:02:17.849Z,19.00
2023-03-27T12:04:52.348Z,18.96
2023-03-27T12:07:35.769Z,19.93
2023-03-27T12:10:15.294Z,19.18
2023-03-27T12:12:56.571Z,18.72
2023-03-27T12:15:37.054Z,18.60
2023-03-27T12:18:14.543Z,18.44
2023-03-27T12:21:03.873Z,17.90
2023-03-27T12:23:44.534Z,17.99
2023-03-27T12:26:28.497Z,18.19
2023-03-27T12:29:23.023Z,18.45
2023-03-27T12:32:11.721Z,18.30
2023-03-27T12:34:51.288Z,17.73
2023-03-27T12:37:24.816Z,18.32
2023-03-27T12:39:55.042Z,18.25
2023-03-27T12:42:44.090Z,17.74
2023-03-27T12:45:18.294Z,18.37
2023-03-27T12:47:52.317Z,18.44
2023-03-27T12:50:22.502Z,18.21
2023-03-27T12:52:53.380Z,18.46
2023-03-27T12:55:35.318Z,18.24
2023-03-27T12:58:06.020Z,18.28
2023-03-27T13:00:34.461Z,18.89
2023-03-27T13:03:33.091Z,18.67
2023-03-27T13:06:14.463Z,17.79
2023-03-27T13:08:54.455Z,18.58
2023-03-27T13:11:37.418Z,18.23
2023-03-27T13:14:38.477Z,17.66
2023-03-27T13:17:25.847Z,17.59
2023-03-27T13:19:59.959Z,17.90
2023-03-27T13:22:45.871Z,17.61
2023-03-27T13:25:31.704Z,17.70
2023-03-27T13:28:28.503Z,17.50
2023-03-27T13:30:58.330Z,18.10
2023-03-27T13:33:28.204Z,17.78
2023-03-27T13:36:14.507Z,18.23
2023-03-27T13:39:13.850Z,18.07
2023-03-27T13:42:03.818Z,17.49
2023-03-27T13:45:00.354Z,17.55
2023-03-27T13:47:48.636Z,17.55
2023-03-27T13:50:41.899Z,17.48
2023-03-27T13:53:33.350Z,17.55
2023-03-27T13:56:11.110Z,17.13
2023-03-27T13:59:15.085Z,16.89
2023-03-27T14:01:54.095Z,16.86
2023-03-27T14:04:33.363Z,17.26
2023-03-27T14:07:54.129Z,16.66
2023-03-27T14:10:32.522Z,17.23
2023-03-27T14:13:13.436Z,17.55
2023-03-27T14:15:51.233Z,17.44
2023-03-27T14:18:44.147Z,16.74
2023-03-27T14:21:24.536Z,17.35
2023-03-27T14:24:06.371Z,17.08
2023-03-27T14:26:35.881Z,17.08
2023-03-27T14:29:04.184Z,17.60
2023-03-27T14:31:35.649Z,17.49
2023-03-27T14:34:06.475Z,16.39
2023-03-27T14:36:36.019Z,17.85
2023-03-27T14:39:14.235Z,17.12
2023-03-27T14:41:47.278Z,16.71
2023-03-27T14:44:16.113Z,17.38
2023-03-27T14:46:48.179Z,17.08
2023-03-27T14:49:20.767Z,16.52
2023-03-27T14:51:55.457Z,16.61
2023-03-27T14:54:28.885Z,16.24
2023-03-27T14:57:00.144Z,16.38
2023-03-27T14:59:31.639Z,16.29
2023-03-27T15:02:02.135Z,16.92
2023-03-27T15:04:32.732Z,16.54
2023-03-27T15:07:14.442Z,16.19
2023-03-27T15:09:43.491Z,16.52
2023-03-27T15:12:12.802Z,16.63
2023-03-27T15:14:41.669Z,16.54
2023-03-27T15:17:15.015Z,15.88
2023-03-27T15:19:48.554Z,15.79
2023-03-27T15:22:21.085Z,15.54
2023-03-27T15:24:52.595Z,15.77
2023-03-27T15:27:24.549Z,15.99
2023-03-27T15:29:57.972Z,15.89
2023-03-27T15:32:30.325Z,16.04
2023-03-27T15:35:03.556Z,15.28
2023-03-27T15:37:33.018Z,15.94
2023-03-27T15:40:09.322Z,15.67
2023-03-27T15:42:48.465Z,15.13
2023-03-27T15:45:17.919Z,15.75
2023-03-27T15:48:00.183Z,15.55
2023-03-27T15:50:30.462Z,15.79
2023-03-27T15:53:01.565Z,15.82
2023-03-27T15:55:35.082Z,15.25
2023-03-27T15:58:16.326Z,15.51
2023-03-27T16:00:48.803Z,15.04
2023-03-27T16:03:21.233Z,15.01
2023-03-27T16:05:51.768Z,15.09
2023-03-27T16:08:28.566Z,15.12
2023-03-27T16:10:58.525Z,14.93
2023-03-27T16:13:30.082Z,14.76
2023-03-27T16:15:59.585Z,14.45
2023-03-27T16:18:32.102Z,15.16
2023-03-27T16:21:10.150Z,15.04
2023-03-27T16:23:39.088Z,15.76
2023-03-27T16:26:08.687Z,15.70
2023-03-27T16:28:37.566Z,15.68
2023-03-27T16:31:13.211Z,15.71
2023-03-27T16:33:45.290Z,16.34
2023-03-27T16:36:17.013Z,16.08
2023-03-27T16:38:46.093Z,15.93
2023-03-27T16:41:15.249Z,15.90
2023-03-27T16:43:44.726Z,15.86
2023-03-27T16:46:24.331Z,15.83
2023-03-27T16:48:53.972Z,15.68
2023-03-27T16:51:25.763Z,15.25
2023-03-27T16:53:54.584Z,15.59
2023-03-27T16:56:23.325Z,15.84
2023-03-27T16:58:52.010Z,16.05
2023-03-27T17:01:20.517Z,15.79
2023-03-27T17:03:49.147Z,16.12
2023-03-27T17:06:19.239Z,15.92
2023-03-27T17:08:52.575Z,16.18
2023-03-27T17:11:21.097Z,15.96
2023-03-27T17:13:50.323Z,16.09
2023-03-27T17:16:18.629Z,16.22
2023-03-27T17:18:47.396Z,16.35
2023-03-27T17:21:15.800Z,16.13
2023-03-27T17:23:48.374Z,16.87
2023-03-27T17:26:24.749Z,16.70
2023-03-27T17:28:53.506Z,16.92
2023-03-27T17:31:22.116Z,16.82
2023-03-27T17:33:51.040Z,17.02
2023-03-27T17:36:33.106Z,16.68
2023-03-27T17:39:09.779Z,16.66
2023-03-27T17:41:39.841Z,16.43
2023-03-27T17:44:08.854Z,16.47
2023-03-27T17:46:37.424Z,16.63
2023-03-27T17:49:06.438Z,17.35
2023-03-27T17:51:35.598Z,16.38
2023-03-27T17:54:04.533Z,16.48
2023-03-27T17:56:32.895Z,16.32
2023-03-27T17:59:03.020Z,16.26
2023-03-27T18:01:31.653Z,16.60
2023-03-27T18:04:00.681Z,16.44
2023-03-27T18:06:29.266Z,16.55
2023-03-27T18:08:58.261Z,16.50
2023-03-27T18:11:26.715Z,16.72
2023-03-27T18:13:55.278Z,16.75
2023-03-27T18:16:25.137Z,16.59
2023-03-27T18:18:55.691Z,16.85
2023-03-27T18:21:24.218Z,16.85
2023-03-27T18:23:53.936Z,16.82
2023-03-27T18:26:22.415Z,17.15
2023-03-27T18:28:52.448Z,17.08
2023-03-27T18:31:21.023Z,17.26
2023-03-27T18:33:50.930Z,17.37
2023-03-27T18:36:19.460Z,17.53
2023-03-27T18:38:49.733Z,17.62
2023-03-27T18:41:18.388Z,17.63
2023-03-27T18:43:47.232Z,17.80
2023-03-27T18:46:17.317Z,17.77
2023-03-27T18:48:48.698Z,17.89
2023-03-27T18:51:19.403Z,17.71
2023-03-27T18:53:48.061Z,17.86
2023-03-27T18:56:16.831Z,17.91
2023-03-27T18:58:45.774Z,17.95
2023-03-27T19:01:14.113Z,17.95
2023-03-27T19:03:43.542Z,17.96
2023-03-27T19:06:12.994Z,17.99
2023-03-27T19:08:45.844Z,17.81
2023-03-27T19:11:14.382Z,18.19
2023-03-27T19:13:42.879Z,18.10
2023-03-27T19:16:14.535Z,18.07
2023-03-27T19:18:44.012Z,18.25
2023-03-27T19:21:12.371Z,18.35
2023-03-27T19:23:42.545Z,18.34
2023-03-27T19:26:12.529Z,18.32
2023-03-27T19:28:41.486Z,18.67
2023-03-27T19:31:11.198Z,18.74
2023-03-27T19:33:40.850Z,18.85
2023-03-27T19:36:10.232Z,18.75
2023-03-27T19:38:39.745Z,18.73
2023-03-27T19:41:12.926Z,18.47
2023-03-27T19:43:41.527Z,18.95
2023-03-27T19:48:42.503Z,18.79
2023-03-27T19:51:10.905Z,19.17
2023-03-27T19:53:39.443Z,19.19
2023-03-27T19:56:07.921Z,19.15
2023-03-27T19:58:37.906Z,18.99
2023-03-27T20:01:07.250Z,19.23
2023-03-27T20:03:38.824Z,19.24
2023-03-27T20:06:13.152Z,19.58
2023-03-27T20:08:43.006Z,19.25
2023-03-27T20:11:11.256Z,19.21
2023-03-27T20:13:55.645Z,19.12
2023-03-27T20:16:26.293Z,19.16
2023-03-27T20:19:04.625Z,19.31
2023-03-27T20:21:34.514Z,19.25
2023-03-27T20:24:03.474Z,19.30
2023-03-27T20:26:39.188Z,19.43
2023-03-27T20:29:10.523Z,19.19
2023-03-27T20:31:39.341Z,19.29
2023-03-27T20:34:08.776Z,19.40
2023-03-27T20:36:39.337Z,19.56
2023-03-27T20:39:09.263Z,19.47
2023-03-27T20:41:39.214Z,19.65
2023-03-27T20:44:15.484Z,19.44
2023-03-27T20:46:47.526Z,19.80
2023-03-27T20:49:37.645Z,19.71
2023-03-27T20:52:10.091Z,19.81
2023-03-27T20:54:38.701Z,19.73
2023-03-27T20:57:07.244Z,19.62
2023-03-27T20:59:37.236Z,19.17
2023-03-27T21:02:05.863Z,19.33
2023-03-27T21:04:34.825Z,19.23
2023-03-27T21:07:03.190Z,19.15
2023-03-27T21:09:32.077Z,19.00
2023-03-27T21:12:01.414Z,19.00
2023-03-27T21:14:30.144Z,18.84
2023-03-27T21:16:59.945Z,18.83
2023-03-27T21:19:28.846Z,18.92
2023-03-27T21:21:57.187Z,18.84
2023-03-27T21:24:25.748Z,18.91
2023-03-27T21:26:54.005Z,18.99
2023-03-27T21:29:22.804Z,18.79
2023-03-27T21:31:51.082Z,18.80
2023-03-27T21:34:21.094Z,18.73
2023-03-27T21:36:49.371Z,19.03
2023-03-27T21:39:18.136Z,19.18
2023-03-27T21:41:46.439Z,18.89
2023-03-27T21:44:15.270Z,18.87
2023-03-27T21:46:43.532Z,19.01
2023-03-27T21:49:12.222Z,18.94
2023-03-27T21:51:41.866Z,18.70
2023-03-27T21:54:10.404Z,18.84
2023-03-27T21:56:38.837Z,18.73
2023-03-27T21:59:07.550Z,18.70
2023-03-27T22:01:35.883Z,18.63
2023-03-27T22:04:04.502Z,18.83
2023-03-27T22:06:32.815Z,18.84
2023-03-27T22:09:02.872Z,18.80
2023-03-27T22:11:31.369Z,18.75
2023-03-27T22:14:00.963Z,18.73
2023-03-27T22:16:29.459Z,18.90
2023-03-27T22:18:58.392Z,18.79
2023-03-27T22:21:28.600Z,18.74
2023-03-27T22:23:58.283Z,18.60
2023-03-27T22:26:30.137Z,18.58
2023-03-27T22:28:59.325Z,18.77
2023-03-27T22:31:29.177Z,18.75
2023-03-27T22:33:57.892Z,18.96
2023-03-27T22:36:26.344Z,18.95
2023-03-27T22:38:55.542Z,18.87
2023-03-27T22:41:23.835Z,18.98
2023-03-27T22:43:54.244Z,18.91
2023-03-27T22:46:24.105Z,18.98
2023-03-27T22:48:56.424Z,18.96
2023-03-27T22:51:25.150Z,19.33
2023-03-27T22:53:54.876Z,19.21
2023-03-27T22:56:23.225Z,19.40
2023-03-27T22:58:53.292Z,19.36
2023-03-27T23:01:21.655Z,19.47
2023-03-27T23:03:50.501Z,19.42
2023-03-27T23:06:20.159Z,19.38
2023-03-27T23:08:49.606Z,19.36
2023-03-27T23:11:18.941Z,19.63
2023-03-27T23:13:48.102Z,19.43
2023-03-27T23:16:17.728Z,19.42
2023-03-27T23:18:46.853Z,19.45
2023-03-27T23:21:16.813Z,19.67
2023-03-27T23:23:45.777Z,19.38
2023-03-27T23:26:14.397Z,19.52
2023-03-27T23:28:43.760Z,19.52
2023-03-27T23:31:13.587Z,19.63
2023-03-27T23:33:45.112Z,19.36
2023-03-27T23:36:15.058Z,19.60
2023-03-27T23:38:44.068Z,19.62
2023-03-27T23:41:14.079Z,19.67
2023-03-27T23:43:42.788Z,19.65
2023-03-27T23:46:11.530Z,19.52
2023-03-27T23:48:42.112Z,19.56
2023-03-27T23:51:13.066Z,19.64
2023-03-27T23:53:41.656Z,18.70
2023-03-27T23:56:10.737Z,19.66
2023-03-27T23:58:39.285Z,19.93
